sensor_id;sensor_type;location;lat;lon;timestamp;P1;durP1;ratioP1;P2;durP2;ratioP2
74269;SDS011;62754;48.252;11.654;2023-05-09T00:01:49;22.33;;;13.07;;
74269;SDS011;62754;48.252;11.654;2023-05-09T00:04:14;23.08;;;12.90;;
74269;SDS011;62754;48.252;11.654;2023-05-09T00:06:45;20.17;;;12.00;;
74269;SDS011;62754;48.252;11.654;2023-05-09T00:09:15;22.30;;;13.98;;
74269;SDS011;62754;48.252;11.654;2023-05-09T00:11:42;22.70;;;13.27;;
74269;SDS011;62754;48.252;11.654;2023-05-09T00:14:10;23.17;;;13.35;;
74269;SDS011;62754;48.252;11.654;2023-05-09T00:16:35;20.35;;;12.30;;
74269;SDS011;62754;48.252;11.654;2023-05-09T00:19:03;21.95;;;12.93;;
74269;SDS011;62754;48.252;11.654;2023-05-09T00:21:29;22.73;;;12.77;;
74269;SDS011;62754;48.252;11.654;2023-05-09T00:23:55;21.15;;;12.90;;
74269;SDS011;62754;48.252;11.654;2023-05-09T00:26:23;19.73;;;11.10;;
74269;SDS011;62754;48.252;11.654;2023-05-09T00:28:51;21.90;;;11.73;;
74269;SDS011;62754;48.252;11.654;2023-05-09T00:31:18;20.13;;;12.77;;
74269;SDS011;62754;48.252;11.654;2023-05-09T00:33:47;18.95;;;11.95;;
74269;SDS011;62754;48.252;11.654;2023-05-09T00:36:16;22.42;;;12.68;;
74269;SDS011;62754;48.252;11.654;2023-05-09T00:38:41;23.50;;;13.23;;
74269;SDS011;62754;48.252;11.654;2023-05-09T00:41:07;20.63;;;12.05;;
74269;SDS011;62754;48.252;11.654;2023-05-09T00:43:33;22.60;;;13.02;;
74269;SDS011;62754;48.252;11.654;2023-05-09T00:45:58;20.95;;;12.60;;
74269;SDS011;62754;48.252;11.654;2023-05-09T00:48:29;24.17;;;13.38;;
74269;SDS011;62754;48.252;11.654;2023-05-09T00:50:55;22.40;;;12.55;;
74269;SDS011;62754;48.252;11.654;2023-05-09T00:53:21;21.50;;;12.73;;
74269;SDS011;62754;48.252;11.654;2023-05-09T00:55:48;22.60;;;13.00;;
74269;SDS011;62754;48.252;11.654;2023-05-09T00:58:20;23.63;;;13.20;;
74269;SDS011;62754;48.252;11.654;2023-05-09T01:00:48;24.92;;;14.35;;
74269;SDS011;62754;48.252;11.654;2023-05-09T01:03:14;22.92;;;13.52;;
74269;SDS011;62754;48.252;11.654;2023-05-09T01:05:45;21.65;;;13.35;;
74269;SDS011;62754;48.252;11.654;2023-05-09T01:11:35;25.75;;;13.20;;
74269;SDS011;62754;48.252;11.654;2023-05-09T01:17:37;20.45;;;12.63;;
74269;SDS011;62754;48.252;11.654;2023-05-09T01:28:13;20.88;;;12.55;;
74269;SDS011;62754;48.252;11.654;2023-05-09T01:30:50;23.20;;;13.07;;
74269;SDS011;62754;48.252;11.654;2023-05-09T01:33:19;23.20;;;13.43;;
74269;SDS011;62754;48.252;11.654;2023-05-09T01:35:50;24.20;;;13.25;;
74269;SDS011;62754;48.252;11.654;2023-05-09T01:38:32;22.83;;;13.20;;
74269;SDS011;62754;48.252;11.654;2023-05-09T01:41:04;23.63;;;13.70;;
74269;SDS011;62754;48.252;11.654;2023-05-09T01:43:37;21.95;;;13.23;;
74269;SDS011;62754;48.252;11.654;2023-05-09T01:46:07;22.95;;;13.48;;
74269;SDS011;62754;48.252;11.654;2023-05-09T01:48:36;23.23;;;12.73;;
74269;SDS011;62754;48.252;11.654;2023-05-09T01:51:08;23.15;;;13.40;;
74269;SDS011;62754;48.252;11.654;2023-05-09T01:53:38;22.00;;;12.55;;
74269;SDS011;62754;48.252;11.654;2023-05-09T01:56:05;20.60;;;12.75;;
74269;SDS011;62754;48.252;11.654;2023-05-09T01:58:38;24.48;;;13.55;;
74269;SDS011;62754;48.252;11.654;2023-05-09T02:01:10;20.00;;;11.82;;
74269;SDS011;62754;48.252;11.654;2023-05-09T02:03:39;23.13;;;13.32;;
74269;SDS011;62754;48.252;11.654;2023-05-09T02:06:09;23.63;;;12.75;;
74269;SDS011;62754;48.252;11.654;2023-05-09T02:08:35;23.60;;;13.18;;
74269;SDS011;62754;48.252;11.654;2023-05-09T02:11:02;23.05;;;13.93;;
74269;SDS011;62754;48.252;11.654;2023-05-09T02:13:28;24.23;;;13.38;;
74269;SDS011;62754;48.252;11.654;2023-05-09T02:15:54;21.85;;;13.13;;
74269;SDS011;62754;48.252;11.654;2023-05-09T02:23:12;21.42;;;12.40;;
74269;SDS011;62754;48.252;11.654;2023-05-09T02:28:14;23.50;;;13.68;;
74269;SDS011;62754;48.252;11.654;2023-05-09T02:30:46;22.60;;;13.13;;
74269;SDS011;62754;48.252;11.654;2023-05-09T02:33:15;23.15;;;13.70;;
74269;SDS011;62754;48.252;11.654;2023-05-09T02:35:43;20.58;;;12.80;;
74269;SDS011;62754;48.252;11.654;2023-05-09T02:38:12;23.80;;;14.52;;
74269;SDS011;62754;48.252;11.654;2023-05-09T02:40:40;20.90;;;13.15;;
74269;SDS011;62754;48.252;11.654;2023-05-09T02:43:09;22.75;;;12.93;;
74269;SDS011;62754;48.252;11.654;2023-05-09T02:45:35;22.50;;;13.48;;
74269;SDS011;62754;48.252;11.654;2023-05-09T02:48:03;22.25;;;13.40;;
74269;SDS011;62754;48.252;11.654;2023-05-09T02:50:31;22.33;;;13.48;;
74269;SDS011;62754;48.252;11.654;2023-05-09T02:53:00;21.52;;;13.25;;
74269;SDS011;62754;48.252;11.654;2023-05-09T02:55:26;22.98;;;12.25;;
74269;SDS011;62754;48.252;11.654;2023-05-09T02:57:54;22.73;;;13.05;;
74269;SDS011;62754;48.252;11.654;2023-05-09T03:00:22;23.65;;;13.30;;
74269;SDS011;62754;48.252;11.654;2023-05-09T03:02:50;20.40;;;12.25;;
74269;SDS011;62754;48.252;11.654;2023-05-09T03:05:21;21.10;;;12.48;;
74269;SDS011;62754;48.252;11.654;2023-05-09T03:07:47;22.33;;;13.43;;
74269;SDS011;62754;48.252;11.654;2023-05-09T03:10:12;22.80;;;13.45;;
74269;SDS011;62754;48.252;11.654;2023-05-09T03:12:41;22.63;;;12.88;;
74269;SDS011;62754;48.252;11.654;2023-05-09T03:15:11;21.45;;;12.98;;
74269;SDS011;62754;48.252;11.654;2023-05-09T03:17:39;23.20;;;12.75;;
74269;SDS011;62754;48.252;11.654;2023-05-09T03:20:07;20.17;;;11.75;;
74269;SDS011;62754;48.252;11.654;2023-05-09T03:22:36;20.10;;;12.65;;
74269;SDS011;62754;48.252;11.654;2023-05-09T03:25:02;21.30;;;12.75;;
74269;SDS011;62754;48.252;11.654;2023-05-09T03:27:31;21.48;;;12.40;;
74269;SDS011;62754;48.252;11.654;2023-05-09T03:29:57;19.90;;;12.43;;
74269;SDS011;62754;48.252;11.654;2023-05-09T03:32:26;20.95;;;12.35;;
74269;SDS011;62754;48.252;11.654;2023-05-09T03:34:51;21.35;;;12.32;;
74269;SDS011;62754;48.252;11.654;2023-05-09T03:37:17;20.80;;;12.02;;
74269;SDS011;62754;48.252;11.654;2023-05-09T03:39:43;20.00;;;11.63;;
74269;SDS011;62754;48.252;11.654;2023-05-09T03:42:11;18.23;;;11.45;;
74269;SDS011;62754;48.252;11.654;2023-05-09T03:44:37;19.02;;;11.85;;
74269;SDS011;62754;48.252;11.654;2023-05-09T03:47:02;17.80;;;12.25;;
74269;SDS011;62754;48.252;11.654;2023-05-09T03:49:28;19.95;;;12.20;;
74269;SDS011;62754;48.252;11.654;2023-05-09T03:51:59;20.15;;;12.38;;
74269;SDS011;62754;48.252;11.654;2023-05-09T03:54:25;19.35;;;11.05;;
74269;SDS011;62754;48.252;11.654;2023-05-09T03:56:50;19.38;;;11.75;;
74269;SDS011;62754;48.252;11.654;2023-05-09T03:59:19;19.23;;;11.60;;
74269;SDS011;62754;48.252;11.654;2023-05-09T04:01:47;17.75;;;11.07;;
74269;SDS011;62754;48.252;11.654;2023-05-09T04:04:15;16.20;;;10.60;;
74269;SDS011;62754;48.252;11.654;2023-05-09T04:06:45;17.80;;;10.30;;
74269;SDS011;62754;48.252;11.654;2023-05-09T04:09:13;15.23;;;10.00;;
74269;SDS011;62754;48.252;11.654;2023-05-09T04:11:39;18.10;;;10.13;;
74269;SDS011;62754;48.252;11.654;2023-05-09T04:14:07;16.48;;;10.10;;
74269;SDS011;62754;48.252;11.654;2023-05-09T04:16:35;15.73;;;10.02;;
74269;SDS011;62754;48.252;11.654;2023-05-09T04:19:03;14.70;;;9.40;;
74269;SDS011;62754;48.252;11.654;2023-05-09T04:21:32;15.18;;;9.25;;
74269;SDS011;62754;48.252;11.654;2023-05-09T04:24:00;16.88;;;9.95;;
74269;SDS011;62754;48.252;11.654;2023-05-09T04:26:25;14.50;;;9.55;;
74269;SDS011;62754;48.252;11.654;2023-05-09T04:28:56;18.95;;;10.20;;
74269;SDS011;62754;48.252;11.654;2023-05-09T04:31:22;14.80;;;9.70;;
74269;SDS011;62754;48.252;11.654;2023-05-09T04:33:47;18.17;;;10.10;;
74269;SDS011;62754;48.252;11.654;2023-05-09T04:36:16;15.20;;;10.32;;
74269;SDS011;62754;48.252;11.654;2023-05-09T04:38:43;13.82;;;9.52;;
74269;SDS011;62754;48.252;11.654;2023-05-09T04:41:11;14.73;;;8.60;;
74269;SDS011;62754;48.252;11.654;2023-05-09T04:43:37;12.32;;;9.13;;
74269;SDS011;62754;48.252;11.654;2023-05-09T04:46:03;14.77;;;8.40;;
74269;SDS011;62754;48.252;11.654;2023-05-09T04:48:31;13.88;;;9.05;;
74269;SDS011;62754;48.252;11.654;2023-05-09T04:50:57;14.02;;;8.82;;
74269;SDS011;62754;48.252;11.654;2023-05-09T04:53:25;13.18;;;8.40;;
74269;SDS011;62754;48.252;11.654;2023-05-09T04:55:53;13.45;;;8.40;;
74269;SDS011;62754;48.252;11.654;2023-05-09T04:58:21;11.85;;;7.60;;
74269;SDS011;62754;48.252;11.654;2023-05-09T05:00:49;11.23;;;7.47;;
74269;SDS011;62754;48.252;11.654;2023-05-09T05:03:17;12.38;;;7.30;;
74269;SDS011;62754;48.252;11.654;2023-05-09T05:05:43;12.38;;;8.00;;
74269;SDS011;62754;48.252;11.654;2023-05-09T05:08:12;12.73;;;7.40;;
74269;SDS011;62754;48.252;11.654;2023-05-09T05:13:16;10.80;;;7.20;;
74269;SDS011;62754;48.252;11.654;2023-05-09T05:15:44;15.40;;;8.23;;
74269;SDS011;62754;48.252;11.654;2023-05-09T05:18:09;9.38;;;6.65;;
74269;SDS011;62754;48.252;11.654;2023-05-09T05:20:37;10.40;;;6.78;;
74269;SDS011;62754;48.252;11.654;2023-05-09T05:23:07;11.32;;;7.05;;
74269;SDS011;62754;48.252;11.654;2023-05-09T05:25:35;10.13;;;6.65;;
74269;SDS011;62754;48.252;11.654;2023-05-09T05:28:01;11.35;;;7.22;;
74269;SDS011;62754;48.252;11.654;2023-05-09T05:30:29;9.82;;;6.20;;
74269;SDS011;62754;48.252;11.654;2023-05-09T05:32:57;9.15;;;6.35;;
74269;SDS011;62754;48.252;11.654;2023-05-09T05:35:25;10.07;;;6.72;;
74269;SDS011;62754;48.252;11.654;2023-05-09T05:37:56;9.15;;;6.38;;
74269;SDS011;62754;48.252;11.654;2023-05-09T05:40:25;8.25;;;5.80;;
74269;SDS011;62754;48.252;11.654;2023-05-09T05:42:56;8.57;;;5.93;;
74269;SDS011;62754;48.252;11.654;2023-05-09T05:45:24;9.18;;;6.70;;
74269;SDS011;62754;48.252;11.654;2023-05-09T05:47:52;8.23;;;5.90;;
74269;SDS011;62754;48.252;11.654;2023-05-09T05:50:18;9.93;;;6.15;;
74269;SDS011;62754;48.252;11.654;2023-05-09T05:52:46;8.23;;;5.80;;
74269;SDS011;62754;48.252;11.654;2023-05-09T05:55:12;8.85;;;5.90;;
74269;SDS011;62754;48.252;11.654;2023-05-09T05:57:41;9.85;;;6.22;;
74269;SDS011;62754;48.252;11.654;2023-05-09T06:00:11;8.55;;;6.22;;
74269;SDS011;62754;48.252;11.654;2023-05-09T06:02:38;8.82;;;5.65;;
74269;SDS011;62754;48.252;11.654;2023-05-09T06:05:06;7.88;;;5.43;;
74269;SDS011;62754;48.252;11.654;2023-05-09T06:07:32;8.48;;;5.68;;
74269;SDS011;62754;48.252;11.654;2023-05-09T06:09:58;10.77;;;6.03;;
74269;SDS011;62754;48.252;11.654;2023-05-09T06:12:23;8.60;;;5.93;;
74269;SDS011;62754;48.252;11.654;2023-05-09T06:14:49;7.85;;;6.07;;
74269;SDS011;62754;48.252;11.654;2023-05-09T06:17:19;8.93;;;5.82;;
74269;SDS011;62754;48.252;11.654;2023-05-09T06:19:47;8.95;;;5.80;;
74269;SDS011;62754;48.252;11.654;2023-05-09T06:22:15;9.35;;;6.25;;
74269;SDS011;62754;48.252;11.654;2023-05-09T06:24:43;7.68;;;5.78;;
74269;SDS011;62754;48.252;11.654;2023-05-09T06:27:09;8.02;;;5.72;;
74269;SDS011;62754;48.252;11.654;2023-05-09T06:29:35;10.20;;;6.15;;
74269;SDS011;62754;48.252;11.654;2023-05-09T06:32:03;8.88;;;6.68;;
74269;SDS011;62754;48.252;11.654;2023-05-09T06:34:29;7.53;;;5.85;;
74269;SDS011;62754;48.252;11.654;2023-05-09T06:36:55;11.48;;;6.35;;
74269;SDS011;62754;48.252;11.654;2023-05-09T06:39:23;8.50;;;6.18;;
74269;SDS011;62754;48.252;11.654;2023-05-09T06:41:49;9.43;;;6.05;;
74269;SDS011;62754;48.252;11.654;2023-05-09T06:44:14;9.88;;;6.93;;
74269;SDS011;62754;48.252;11.654;2023-05-09T06:46:40;7.70;;;5.95;;
74269;SDS011;62754;48.252;11.654;2023-05-09T06:49:08;8.13;;;6.28;;
74269;SDS011;62754;48.252;11.654;2023-05-09T06:51:36;8.00;;;5.95;;
74269;SDS011;62754;48.252;11.654;2023-05-09T06:54:04;10.20;;;6.47;;
74269;SDS011;62754;48.252;11.654;2023-05-09T06:56:33;8.48;;;6.35;;
74269;SDS011;62754;48.252;11.654;2023-05-09T06:59:01;8.85;;;6.32;;
74269;SDS011;62754;48.252;11.654;2023-05-09T07:01:26;8.63;;;5.88;;
74269;SDS011;62754;48.252;11.654;2023-05-09T07:03:54;7.72;;;5.72;;
74269;SDS011;62754;48.252;11.654;2023-05-09T07:06:20;8.23;;;5.95;;
74269;SDS011;62754;48.252;11.654;2023-05-09T07:08:46;8.77;;;6.22;;
74269;SDS011;62754;48.252;11.654;2023-05-09T07:11:12;8.52;;;6.38;;
74269;SDS011;62754;48.252;11.654;2023-05-09T07:13:40;11.48;;;6.97;;
74269;SDS011;62754;48.252;11.654;2023-05-09T07:16:06;10.07;;;6.53;;
74269;SDS011;62754;48.252;11.654;2023-05-09T07:18:31;10.40;;;7.00;;
74269;SDS011;62754;48.252;11.654;2023-05-09T07:20:59;10.32;;;6.78;;
74269;SDS011;62754;48.252;11.654;2023-05-09T07:23:27;11.25;;;6.75;;
74269;SDS011;62754;48.252;11.654;2023-05-09T07:25:56;9.50;;;6.80;;
74269;SDS011;62754;48.252;11.654;2023-05-09T07:28:22;10.50;;;7.40;;
74269;SDS011;62754;48.252;11.654;2023-05-09T07:30:48;10.90;;;6.05;;
74269;SDS011;62754;48.252;11.654;2023-05-09T07:33:16;10.23;;;7.20;;
74269;SDS011;62754;48.252;11.654;2023-05-09T07:35:47;8.75;;;6.75;;
74269;SDS011;62754;48.252;11.654;2023-05-09T07:38:15;10.05;;;7.13;;
74269;SDS011;62754;48.252;11.654;2023-05-09T07:40:43;11.32;;;7.40;;
74269;SDS011;62754;48.252;11.654;2023-05-09T07:43:11;9.52;;;6.93;;
74269;SDS011;62754;48.252;11.654;2023-05-09T07:45:39;9.20;;;7.00;;
74269;SDS011;62754;48.252;11.654;2023-05-09T07:48:08;10.18;;;6.95;;
74269;SDS011;62754;48.252;11.654;2023-05-09T07:50:33;10.35;;;6.38;;
74269;SDS011;62754;48.252;11.654;2023-05-09T07:52:59;11.40;;;6.80;;
74269;SDS011;62754;48.252;11.654;2023-05-09T07:55:27;9.55;;;7.35;;
74269;SDS011;62754;48.252;11.654;2023-05-09T07:57:55;8.70;;;6.75;;
74269;SDS011;62754;48.252;11.654;2023-05-09T08:00:21;9.90;;;6.97;;
74269;SDS011;62754;48.252;11.654;2023-05-09T08:02:47;9.50;;;7.10;;
74269;SDS011;62754;48.252;11.654;2023-05-09T08:05:15;12.52;;;7.40;;
74269;SDS011;62754;48.252;11.654;2023-05-09T08:07:40;10.70;;;7.18;;
74269;SDS011;62754;48.252;11.654;2023-05-09T08:10:09;9.20;;;7.00;;
74269;SDS011;62754;48.252;11.654;2023-05-09T08:12:35;9.30;;;7.07;;
74269;SDS011;62754;48.252;11.654;2023-05-09T08:15:04;8.40;;;6.82;;
74269;SDS011;62754;48.252;11.654;2023-05-09T08:19:55;10.38;;;7.03;;
74269;SDS011;62754;48.252;11.654;2023-05-09T08:22:21;9.85;;;6.60;;
74269;SDS011;62754;48.252;11.654;2023-05-09T08:24:47;9.15;;;7.15;;
74269;SDS011;62754;48.252;11.654;2023-05-09T08:27:13;8.65;;;6.72;;
74269;SDS011;62754;48.252;11.654;2023-05-09T08:29:41;9.65;;;6.80;;
74269;SDS011;62754;48.252;11.654;2023-05-09T08:32:07;8.73;;;7.68;;
74269;SDS011;62754;48.252;11.654;2023-05-09T08:37:02;11.27;;;7.78;;
74269;SDS011;62754;48.252;11.654;2023-05-09T08:39:29;12.02;;;8.40;;
74269;SDS011;62754;48.252;11.654;2023-05-09T08:42:00;10.10;;;7.95;;
74269;SDS011;62754;48.252;11.654;2023-05-09T08:44:27;10.95;;;8.60;;
74269;SDS011;62754;48.252;11.654;2023-05-09T08:46:55;11.35;;;8.77;;
74269;SDS011;62754;48.252;11.654;2023-05-09T08:49:25;11.18;;;8.73;;
74269;SDS011;62754;48.252;11.654;2023-05-09T08:51:52;11.57;;;8.55;;
74269;SDS011;62754;48.252;11.654;2023-05-09T08:54:22;14.13;;;9.18;;
74269;SDS011;62754;48.252;11.654;2023-05-09T08:56:49;10.80;;;8.70;;
74269;SDS011;62754;48.252;11.654;2023-05-09T09:01:43;11.73;;;9.20;;
74269;SDS011;62754;48.252;11.654;2023-05-09T09:04:09;13.35;;;10.23;;
74269;SDS011;62754;48.252;11.654;2023-05-09T09:06:35;13.68;;;9.77;;
74269;SDS011;62754;48.252;11.654;2023-05-09T09:11:30;13.02;;;9.45;;
74269;SDS011;62754;48.252;11.654;2023-05-09T09:13:59;12.05;;;10.05;;
74269;SDS011;62754;48.252;11.654;2023-05-09T09:16:31;12.75;;;9.27;;
74269;SDS011;62754;48.252;11.654;2023-05-09T09:19:01;12.52;;;9.90;;
74269;SDS011;62754;48.252;11.654;2023-05-09T09:21:29;13.35;;;9.45;;
74269;SDS011;62754;48.252;11.654;2023-05-09T09:23:56;13.35;;;9.55;;
74269;SDS011;62754;48.252;11.654;2023-05-09T09:26:24;11.55;;;9.38;;
74269;SDS011;62754;48.252;11.654;2023-05-09T09:28:53;12.38;;;9.27;;
74269;SDS011;62754;48.252;11.654;2023-05-09T09:33:46;10.60;;;8.90;;
74269;SDS011;62754;48.252;11.654;2023-05-09T09:36:14;11.20;;;9.15;;
74269;SDS011;62754;48.252;11.654;2023-05-09T09:38:43;12.82;;;9.20;;
74269;SDS011;62754;48.252;11.654;2023-05-09T09:41:11;11.35;;;9.40;;
74269;SDS011;62754;48.252;11.654;2023-05-09T09:43:37;14.25;;;10.23;;
74269;SDS011;62754;48.252;11.654;2023-05-09T09:46:09;12.05;;;10.32;;
74269;SDS011;62754;48.252;11.654;2023-05-09T09:48:35;12.40;;;9.93;;
74269;SDS011;62754;48.252;11.654;2023-05-09T09:51:07;12.75;;;10.25;;
74269;SDS011;62754;48.252;11.654;2023-05-09T09:53:40;11.50;;;9.63;;
74269;SDS011;62754;48.252;11.654;2023-05-09T09:56:11;11.82;;;9.48;;
74269;SDS011;62754;48.252;11.654;2023-05-09T09:58:39;13.18;;;9.57;;
74269;SDS011;62754;48.252;11.654;2023-05-09T10:03:36;11.60;;;9.23;;
74269;SDS011;62754;48.252;11.654;2023-05-09T10:06:03;11.65;;;9.35;;
74269;SDS011;62754;48.252;11.654;2023-05-09T10:08:29;10.90;;;9.50;;
74269;SDS011;62754;48.252;11.654;2023-05-09T10:10:59;11.82;;;9.38;;
74269;SDS011;62754;48.252;11.654;2023-05-09T10:13:25;11.23;;;8.85;;
74269;SDS011;62754;48.252;11.654;2023-05-09T10:15:53;10.52;;;9.15;;
74269;SDS011;62754;48.252;11.654;2023-05-09T10:18:27;12.18;;;9.52;;
74269;SDS011;62754;48.252;11.654;2023-05-09T10:20:53;13.23;;;10.25;;
74269;SDS011;62754;48.252;11.654;2023-05-09T10:23:21;11.45;;;9.52;;
74269;SDS011;62754;48.252;11.654;2023-05-09T10:25:52;10.48;;;8.70;;
74269;SDS011;62754;48.252;11.654;2023-05-09T10:28:24;13.00;;;9.35;;
74269;SDS011;62754;48.252;11.654;2023-05-09T10:31:00;10.73;;;8.63;;
74269;SDS011;62754;48.252;11.654;2023-05-09T10:33:41;11.52;;;9.13;;
74269;SDS011;62754;48.252;11.654;2023-05-09T10:36:14;12.48;;;9.68;;
74269;SDS011;62754;48.252;11.654;2023-05-09T10:38:43;10.25;;;8.45;;
74269;SDS011;62754;48.252;11.654;2023-05-09T10:41:10;10.75;;;8.93;;
74269;SDS011;62754;48.252;11.654;2023-05-09T10:43:40;11.32;;;9.05;;
74269;SDS011;62754;48.252;11.654;2023-05-09T10:46:06;13.32;;;10.00;;
74269;SDS011;62754;48.252;11.654;2023-05-09T10:48:32;11.38;;;9.52;;
74269;SDS011;62754;48.252;11.654;2023-05-09T10:51:01;14.57;;;10.90;;
74269;SDS011;62754;48.252;11.654;2023-05-09T10:53:40;12.88;;;9.63;;
74269;SDS011;62754;48.252;11.654;2023-05-09T10:56:06;11.45;;;10.15;;
74269;SDS011;62754;48.252;11.654;2023-05-09T10:58:33;13.07;;;10.82;;
74269;SDS011;62754;48.252;11.654;2023-05-09T11:01:01;10.85;;;9.18;;
74269;SDS011;62754;48.252;11.654;2023-05-09T11:03:54;11.38;;;9.10;;
74269;SDS011;62754;48.252;11.654;2023-05-09T11:12:21;11.77;;;9.43;;
74269;SDS011;62754;48.252;11.654;2023-05-09T11:14:48;11.88;;;10.48;;
74269;SDS011;62754;48.252;11.654;2023-05-09T11:24:42;11.57;;;9.32;;
74269;SDS011;62754;48.252;11.654;2023-05-09T11:27:13;11.02;;;9.68;;
74269;SDS011;62754;48.252;11.654;2023-05-09T11:30:04;11.90;;;10.65;;
74269;SDS011;62754;48.252;11.654;2023-05-09T11:32:31;14.05;;;11.75;;
74269;SDS011;62754;48.252;11.654;2023-05-09T11:35:06;12.20;;;10.57;;
74269;SDS011;62754;48.252;11.654;2023-05-09T11:40:21;14.10;;;11.32;;
74269;SDS011;62754;48.252;11.654;2023-05-09T11:42:50;14.27;;;11.18;;
74269;SDS011;62754;48.252;11.654;2023-05-09T11:45:26;13.77;;;11.55;;
74269;SDS011;62754;48.252;11.654;2023-05-09T11:47:55;15.57;;;11.65;;
74269;SDS011;62754;48.252;11.654;2023-05-09T11:50:24;13.68;;;11.20;;
74269;SDS011;62754;48.252;11.654;2023-05-09T11:52:50;14.13;;;11.23;;
74269;SDS011;62754;48.252;11.654;2023-05-09T11:55:16;14.27;;;11.15;;
74269;SDS011;62754;48.252;11.654;2023-05-09T11:57:50;12.50;;;11.05;;
74269;SDS011;62754;48.252;11.654;2023-05-09T12:00:20;12.20;;;10.75;;
74269;SDS011;62754;48.252;11.654;2023-05-09T12:02:49;13.25;;;10.82;;
74269;SDS011;62754;48.252;11.654;2023-05-09T12:05:18;13.05;;;10.75;;
74269;SDS011;62754;48.252;11.654;2023-05-09T12:07:49;13.13;;;11.65;;
74269;SDS011;62754;48.252;11.654;2023-05-09T12:10:22;12.25;;;10.80;;
74269;SDS011;62754;48.252;11.654;2023-05-09T12:12:48;12.80;;;10.80;;
74269;SDS011;62754;48.252;11.654;2023-05-09T12:15:20;13.05;;;11.65;;
74269;SDS011;62754;48.252;11.654;2023-05-09T12:18:01;12.27;;;10.40;;
74269;SDS011;62754;48.252;11.654;2023-05-09T12:20:41;14.07;;;11.82;;
74269;SDS011;62754;48.252;11.654;2023-05-09T12:23:10;15.55;;;11.40;;
74269;SDS011;62754;48.252;11.654;2023-05-09T12:25:39;12.07;;;10.77;;
74269;SDS011;62754;48.252;11.654;2023-05-09T12:28:13;12.32;;;10.77;;
74269;SDS011;62754;48.252;11.654;2023-05-09T12:30:39;11.85;;;10.25;;
74269;SDS011;62754;48.252;11.654;2023-05-09T12:33:08;14.45;;;10.35;;
74269;SDS011;62754;48.252;11.654;2023-05-09T12:35:33;12.38;;;10.77;;
74269;SDS011;62754;48.252;11.654;2023-05-09T12:38:02;13.20;;;10.88;;
74269;SDS011;62754;48.252;11.654;2023-05-09T12:40:28;14.10;;;11.45;;
74269;SDS011;62754;48.252;11.654;2023-05-09T12:42:56;12.38;;;10.73;;
74269;SDS011;62754;48.252;11.654;2023-05-09T12:45:24;13.00;;;10.18;;
74269;SDS011;62754;48.252;11.654;2023-05-09T12:47:51;12.18;;;10.15;;
74269;SDS011;62754;48.252;11.654;2023-05-09T12:50:29;11.85;;;9.95;;
74269;SDS011;62754;48.252;11.654;2023-05-09T12:52:58;10.65;;;9.55;;
74269;SDS011;62754;48.252;11.654;2023-05-09T12:55:37;12.23;;;10.05;;
74269;SDS011;62754;48.252;11.654;2023-05-09T12:58:13;12.00;;;9.73;;
74269;SDS011;62754;48.252;11.654;2023-05-09T13:00:44;11.43;;;9.00;;
74269;SDS011;62754;48.252;11.654;2023-05-09T13:03:19;11.20;;;9.23;;
74269;SDS011;62754;48.252;11.654;2023-05-09T13:05:57;10.30;;;9.18;;
74269;SDS011;62754;48.252;11.654;2023-05-09T13:08:26;10.57;;;9.18;;
74269;SDS011;62754;48.252;11.654;2023-05-09T13:10:58;10.55;;;8.18;;
74269;SDS011;62754;48.252;11.654;2023-05-09T13:13:28;10.95;;;8.18;;
74269;SDS011;62754;48.252;11.654;2023-05-09T13:16:02;10.80;;;9.10;;
74269;SDS011;62754;48.252;11.654;2023-05-09T13:18:28;9.60;;;8.57;;
74269;SDS011;62754;48.252;11.654;2023-05-09T13:20:56;10.02;;;8.32;;
74269;SDS011;62754;48.252;11.654;2023-05-09T13:23:22;10.65;;;8.55;;
74269;SDS011;62754;48.252;11.654;2023-05-09T13:25:53;11.10;;;8.32;;
74269;SDS011;62754;48.252;11.654;2023-05-09T13:28:18;10.10;;;8.02;;
74269;SDS011;62754;48.252;11.654;2023-05-09T13:30:44;10.02;;;8.13;;
74269;SDS011;62754;48.252;11.654;2023-05-09T13:33:10;9.80;;;8.40;;
74269;SDS011;62754;48.252;11.654;2023-05-09T13:35:40;9.80;;;8.05;;
74269;SDS011;62754;48.252;11.654;2023-05-09T13:38:06;10.27;;;7.43;;
74269;SDS011;62754;48.252;11.654;2023-05-09T13:40:34;8.82;;;7.82;;
74269;SDS011;62754;48.252;11.654;2023-05-09T13:43:04;9.73;;;7.53;;
74269;SDS011;62754;48.252;11.654;2023-05-09T13:45:34;7.80;;;6.30;;
74269;SDS011;62754;48.252;11.654;2023-05-09T13:48:00;8.27;;;6.85;;
74269;SDS011;62754;48.252;11.654;2023-05-09T13:50:28;7.60;;;6.15;;
74269;SDS011;62754;48.252;11.654;2023-05-09T13:52:53;9.55;;;7.20;;
74269;SDS011;62754;48.252;11.654;2023-05-09T13:55:19;8.48;;;6.53;;
74269;SDS011;62754;48.252;11.654;2023-05-09T13:57:45;10.02;;;6.35;;
74269;SDS011;62754;48.252;11.654;2023-05-09T14:00:11;8.13;;;6.40;;
74269;SDS011;62754;48.252;11.654;2023-05-09T14:02:39;8.20;;;6.47;;
74269;SDS011;62754;48.252;11.654;2023-05-09T14:05:05;7.10;;;5.78;;
74269;SDS011;62754;48.252;11.654;2023-05-09T14:07:33;7.72;;;6.55;;
74269;SDS011;62754;48.252;11.654;2023-05-09T14:10:01;8.77;;;6.72;;
74269;SDS011;62754;48.252;11.654;2023-05-09T14:14:57;7.88;;;6.43;;
74269;SDS011;62754;48.252;11.654;2023-05-09T14:17:23;8.88;;;5.97;;
74269;SDS011;62754;48.252;11.654;2023-05-09T14:19:54;8.35;;;5.70;;
74269;SDS011;62754;48.252;11.654;2023-05-09T14:22:22;7.05;;;5.63;;
74269;SDS011;62754;48.252;11.654;2023-05-09T14:24:50;7.82;;;6.03;;
74269;SDS011;62754;48.252;11.654;2023-05-09T14:27:18;9.10;;;5.82;;
74269;SDS011;62754;48.252;11.654;2023-05-09T14:29:46;9.10;;;5.75;;
74269;SDS011;62754;48.252;11.654;2023-05-09T14:34:38;8.60;;;6.70;;
74269;SDS011;62754;48.252;11.654;2023-05-09T14:37:06;9.05;;;6.30;;
74269;SDS011;62754;48.252;11.654;2023-05-09T14:39:34;8.50;;;6.07;;
74269;SDS011;62754;48.252;11.654;2023-05-09T14:42:00;9.23;;;6.30;;
74269;SDS011;62754;48.252;11.654;2023-05-09T14:44:26;8.07;;;6.03;;
74269;SDS011;62754;48.252;11.654;2023-05-09T14:46:54;6.78;;;6.07;;
74269;SDS011;62754;48.252;11.654;2023-05-09T14:49:19;7.30;;;5.97;;
74269;SDS011;62754;48.252;11.654;2023-05-09T14:51:54;6.32;;;5.60;;
74269;SDS011;62754;48.252;11.654;2023-05-09T14:56:46;8.82;;;6.35;;
74269;SDS011;62754;48.252;11.654;2023-05-09T14:59:12;7.03;;;5.35;;
74269;SDS011;62754;48.252;11.654;2023-05-09T15:01:38;7.53;;;5.28;;
74269;SDS011;62754;48.252;11.654;2023-05-09T15:06:30;7.15;;;4.97;;
74269;SDS011;62754;48.252;11.654;2023-05-09T15:11:23;6.85;;;5.50;;
74269;SDS011;62754;48.252;11.654;2023-05-09T15:16:18;7.20;;;5.22;;
74269;SDS011;62754;48.252;11.654;2023-05-09T15:21:11;6.50;;;5.32;;
74269;SDS011;62754;48.252;11.654;2023-05-09T15:23:37;6.03;;;4.65;;
74269;SDS011;62754;48.252;11.654;2023-05-09T15:28:34;6.68;;;4.95;;
74269;SDS011;62754;48.252;11.654;2023-05-09T15:31:05;8.88;;;4.55;;
74269;SDS011;62754;48.252;11.654;2023-05-09T15:33:31;6.35;;;5.22;;
74269;SDS011;62754;48.252;11.654;2023-05-09T15:35:57;8.43;;;5.20;;
74269;SDS011;62754;48.252;11.654;2023-05-09T15:38:28;7.90;;;5.13;;
74269;SDS011;62754;48.252;11.654;2023-05-09T15:40:54;7.65;;;5.03;;
74269;SDS011;62754;48.252;11.654;2023-05-09T15:43:22;8.27;;;4.65;;